createdAt,value
2023-05-10T00:01:41.375Z,17.03
2023-05-10T00:04:08.588Z,16.95
2023-05-10T00:06:35.496Z,16.93
2023-05-10T00:09:02.088Z,16.91
2023-05-10T00:11:28.638Z,16.92
2023-05-10T00:13:56.605Z,16.92
2023-05-10T00:16:23.172Z,15.28
2023-05-10T00:18:49.779Z,16.62
2023-05-10T00:21:16.336Z,15.88
2023-05-10T00:23:42.874Z,14.97
2023-05-10T00:26:09.514Z,14.78
2023-05-10T00:28:36.104Z,16.40
2023-05-10T00:31:04.390Z,16.70
2023-05-10T00:33:31.535Z,16.79
2023-05-10T00:35:58.114Z,16.77
2023-05-10T00:38:24.670Z,16.78
2023-05-10T00:40:51.260Z,16.78
2023-05-10T00:43:18.069Z,16.68
2023-05-10T00:45:45.284Z,16.75
2023-05-10T00:48:13.795Z,14.62
2023-05-10T00:50:41.091Z,16.06
2023-05-10T00:53:08.596Z,16.55
2023-05-10T00:55:35.451Z,16.65
2023-05-10T00:58:02.530Z,16.66
2023-05-10T01:00:30.572Z,16.72
2023-05-10T01:02:57.315Z,16.73
2023-05-10T01:05:25.910Z,16.73
2023-05-10T01:07:52.573Z,16.71
2023-05-10T01:10:19.653Z,16.72
2023-05-10T01:12:48.316Z,16.70
2023-05-10T01:15:16.944Z,16.72
2023-05-10T01:17:46.143Z,16.64
2023-05-10T01:20:13.956Z,16.68
2023-05-10T01:23:18.491Z,16.73
2023-05-10T01:26:12.972Z,16.68
2023-05-10T01:28:59.441Z,16.67
2023-05-10T01:31:45.378Z,16.65
2023-05-10T01:34:21.822Z,16.59
2023-05-10T01:36:56.078Z,16.60
2023-05-10T01:39:26.883Z,16.65
2023-05-10T01:41:58.432Z,16.59
2023-05-10T01:44:30.658Z,16.60
2023-05-10T01:47:02.448Z,16.57
2023-05-10T01:49:36.572Z,16.07
2023-05-10T01:52:09.383Z,16.48
2023-05-10T01:54:39.570Z,16.58
2023-05-10T01:57:08.460Z,16.22
2023-05-10T01:59:37.993Z,16.45
2023-05-10T02:02:06.782Z,16.59
2023-05-10T02:04:38.992Z,16.59
2023-05-10T02:07:07.115Z,16.60
2023-05-10T02:09:35.681Z,16.58
2023-05-10T02:12:04.885Z,16.55
2023-05-10T02:14:35.017Z,16.57
2023-05-10T02:17:04.669Z,16.48
2023-05-10T02:19:33.046Z,16.52
2023-05-10T02:22:02.941Z,16.54
2023-05-10T02:24:30.037Z,16.49
2023-05-10T02:26:58.172Z,16.48
2023-05-10T02:29:28.078Z,16.15
2023-05-10T02:31:56.887Z,16.39
2023-05-10T02:34:26.248Z,16.42
2023-05-10T02:36:54.241Z,16.48
2023-05-10T02:39:23.109Z,16.50
2023-05-10T02:41:51.394Z,16.41
2023-05-10T02:44:20.382Z,16.40
2023-05-10T02:46:47.920Z,16.44
2023-05-10T02:49:15.005Z,16.37
2023-05-10T02:51:45.013Z,16.44
2023-05-10T02:54:14.144Z,16.43
2023-05-10T02:56:48.025Z,16.42
2023-05-10T02:59:15.132Z,16.35
2023-05-10T03:01:42.257Z,16.38
2023-05-10T03:04:09.036Z,16.38
2023-05-10T03:06:35.726Z,16.33
2023-05-10T03:09:03.440Z,15.39
2023-05-10T03:11:44.999Z,16.18
2023-05-10T03:14:22.195Z,16.23
2023-05-10T03:16:57.224Z,14.39
2023-05-10T03:19:27.505Z,15.45
2023-05-10T03:21:56.827Z,16.06
2023-05-10T03:24:28.380Z,16.21
2023-05-10T03:26:57.873Z,16.19
2023-05-10T03:29:26.952Z,14.80
2023-05-10T03:31:53.810Z,13.71
2023-05-10T03:34:25.022Z,13.48
2023-05-10T03:36:51.668Z,15.43
2023-05-10T03:39:18.347Z,15.95
2023-05-10T03:41:44.919Z,16.04
2023-05-10T03:44:11.631Z,16.09
2023-05-10T03:46:39.551Z,16.10
2023-05-10T03:49:06.460Z,16.15
2023-05-10T03:51:33.242Z,16.11
2023-05-10T03:53:59.820Z,16.12
2023-05-10T03:56:26.577Z,16.11
2023-05-10T03:58:53.144Z,16.03
2023-05-10T04:01:19.727Z,16.09
2023-05-10T04:03:47.915Z,16.08
2023-05-10T04:06:14.819Z,16.10
2023-05-10T04:08:41.428Z,16.13
2023-05-10T04:11:08.621Z,16.12
2023-05-10T04:13:35.610Z,16.00
2023-05-10T04:16:02.222Z,16.06
2023-05-10T04:18:28.822Z,16.07
2023-05-10T04:20:56.990Z,16.05
2023-05-10T04:23:23.610Z,16.00
2023-05-10T04:25:50.261Z,15.27
2023-05-10T04:28:16.872Z,15.86
2023-05-10T04:30:43.462Z,15.91
2023-05-10T04:33:10.085Z,16.00
2023-05-10T04:35:36.662Z,14.13
2023-05-10T04:38:04.650Z,14.19
2023-05-10T04:40:31.294Z,15.26
2023-05-10T04:42:57.963Z,15.37
2023-05-10T04:45:24.601Z,15.79
2023-05-10T04:47:51.228Z,15.89
2023-05-10T04:50:18.500Z,15.93
2023-05-10T04:52:45.285Z,15.93
2023-05-10T04:55:13.234Z,15.88
2023-05-10T04:57:39.812Z,15.83
2023-05-10T05:00:07.888Z,15.89
2023-05-10T05:02:34.563Z,14.83
2023-05-10T05:05:01.362Z,15.63
2023-05-10T05:07:28.122Z,15.80
2023-05-10T05:09:54.726Z,15.78
2023-05-10T05:12:22.789Z,15.90
2023-05-10T05:14:49.494Z,15.64
2023-05-10T05:17:16.235Z,15.78
2023-05-10T05:19:42.913Z,15.13
2023-05-10T05:22:09.655Z,15.68
2023-05-10T05:24:37.487Z,14.01
2023-05-10T05:27:04.162Z,15.23
2023-05-10T05:29:32.157Z,15.59
2023-05-10T05:31:58.934Z,14.69
2023-05-10T05:34:26.185Z,13.51
2023-05-10T05:36:52.898Z,14.25
2023-05-10T05:39:19.521Z,15.37
2023-05-10T05:41:47.102Z,13.66
2023-05-10T05:44:13.716Z,14.90
2023-05-10T05:46:41.735Z,14.89
2023-05-10T05:49:08.391Z,15.32
2023-05-10T05:51:36.536Z,15.36
2023-05-10T05:54:05.180Z,14.77
2023-05-10T05:56:31.854Z,13.06
2023-05-10T05:58:58.529Z,14.69
2023-05-10T06:01:25.174Z,14.52
2023-05-10T06:03:53.582Z,15.39
2023-05-10T06:06:20.412Z,15.40
2023-05-10T06:08:47.012Z,15.12
2023-05-10T06:11:13.583Z,15.28
2023-05-10T06:13:40.330Z,14.79
2023-05-10T06:16:07.523Z,14.72
2023-05-10T06:18:34.321Z,14.62
2023-05-10T06:21:02.390Z,14.76
2023-05-10T06:23:29.104Z,15.34
2023-05-10T06:25:56.064Z,15.29
2023-05-10T06:28:22.647Z,15.02
2023-05-10T06:30:49.303Z,15.34
2023-05-10T06:33:16.991Z,14.84
2023-05-10T06:35:43.576Z,15.09
2023-05-10T06:38:11.696Z,14.21
2023-05-10T06:40:41.776Z,15.06
2023-05-10T06:43:08.328Z,15.29
2023-05-10T06:45:34.977Z,15.04
2023-05-10T06:48:02.060Z,15.01
2023-05-10T06:50:28.721Z,15.06
2023-05-10T06:52:57.867Z,15.34
2023-05-10T06:55:25.866Z,15.30
2023-05-10T06:57:52.434Z,15.27
2023-05-10T07:00:20.443Z,15.03
2023-05-10T07:02:48.162Z,15.29
2023-05-10T07:05:15.256Z,15.27
2023-05-10T07:07:42.312Z,14.91
2023-05-10T07:10:09.993Z,15.27
2023-05-10T07:12:39.146Z,15.17
2023-05-10T07:15:07.086Z,14.97
2023-05-10T07:17:34.473Z,15.26
2023-05-10T07:20:01.443Z,15.14
2023-05-10T07:22:28.129Z,15.17
2023-05-10T07:24:57.240Z,15.25
2023-05-10T07:27:23.878Z,15.11
2023-05-10T07:29:52.254Z,14.27
2023-05-10T07:32:18.948Z,14.11
2023-05-10T07:34:45.643Z,14.32
2023-05-10T07:37:12.605Z,14.99
2023-05-10T07:39:39.279Z,15.16
2023-05-10T07:42:06.679Z,15.14
2023-05-10T07:44:33.331Z,14.65
2023-05-10T07:47:01.544Z,14.77
2023-05-10T07:49:28.137Z,14.79
2023-05-10T07:51:54.824Z,15.03
2023-05-10T07:54:21.521Z,14.27
2023-05-10T07:56:48.329Z,14.88
2023-05-10T07:59:17.014Z,15.09
2023-05-10T08:01:44.540Z,15.16
2023-05-10T08:04:12.741Z,14.68
2023-05-10T08:06:40.266Z,15.07
2023-05-10T08:09:07.273Z,15.13
2023-05-10T08:11:35.030Z,15.15
2023-05-10T08:14:02.353Z,15.13
2023-05-10T08:16:29.886Z,14.52
2023-05-10T08:18:56.782Z,15.05
2023-05-10T08:21:24.908Z,13.91
2023-05-10T08:23:54.105Z,14.64
2023-05-10T08:26:22.386Z,13.50
2023-05-10T08:28:48.984Z,13.39
2023-05-10T08:31:16.475Z,13.87
2023-05-10T08:33:44.425Z,14.61
2023-05-10T08:36:11.546Z,14.52
2023-05-10T08:38:39.760Z,12.83
2023-05-10T08:41:06.969Z,12.79
2023-05-10T08:43:36.532Z,13.34
2023-05-10T08:46:06.205Z,12.60
2023-05-10T08:48:35.757Z,13.10
2023-05-10T08:51:04.577Z,12.48
2023-05-10T08:53:34.009Z,13.53
2023-05-10T08:56:02.924Z,13.33
2023-05-10T08:58:29.682Z,13.64
2023-05-10T09:00:58.030Z,14.67
2023-05-10T09:03:24.682Z,14.30
2023-05-10T09:05:51.651Z,14.68
2023-05-10T09:08:18.503Z,14.76
2023-05-10T09:10:47.996Z,14.75
2023-05-10T09:13:16.626Z,13.27
2023-05-10T09:15:45.347Z,14.08
2023-05-10T09:18:12.014Z,12.98
2023-05-10T09:20:38.735Z,12.56
2023-05-10T09:23:05.967Z,12.73
2023-05-10T09:25:34.576Z,13.92
2023-05-10T09:28:01.247Z,14.63
2023-05-10T09:30:30.497Z,14.77
2023-05-10T09:32:57.978Z,14.75
2023-05-10T09:35:29.891Z,14.73
2023-05-10T09:37:58.494Z,14.87
2023-05-10T09:40:27.315Z,14.83
2023-05-10T09:42:55.813Z,14.88
2023-05-10T09:45:23.600Z,13.17
2023-05-10T09:47:51.929Z,13.35
2023-05-10T09:50:19.743Z,12.56
2023-05-10T09:52:52.328Z,11.75
2023-05-10T09:55:20.846Z,12.66
2023-05-10T09:57:48.944Z,14.38
2023-05-10T10:00:19.662Z,14.62
2023-05-10T10:02:48.375Z,14.71
2023-05-10T10:05:16.722Z,14.69
2023-05-10T10:07:43.843Z,14.59
2023-05-10T10:10:13.250Z,14.45
2023-05-10T10:12:41.713Z,12.68
2023-05-10T10:15:09.825Z,13.48
2023-05-10T10:17:38.490Z,14.29
2023-05-10T10:20:06.101Z,14.59
2023-05-10T10:22:34.280Z,14.66
2023-05-10T10:25:01.456Z,14.67
2023-05-10T10:27:38.722Z,14.63
2023-05-10T10:30:16.761Z,14.69
2023-05-10T10:33:10.228Z,14.70
2023-05-10T10:35:44.856Z,14.70
2023-05-10T10:38:14.155Z,14.77
2023-05-10T10:40:41.203Z,14.32
2023-05-10T10:43:27.858Z,14.68
2023-05-10T10:46:13.258Z,14.76
2023-05-10T10:48:40.155Z,14.85
2023-05-10T10:51:06.897Z,14.81
2023-05-10T10:53:35.063Z,14.76
2023-05-10T10:56:10.427Z,14.77
2023-05-10T10:58:38.732Z,13.72
2023-05-10T11:01:16.028Z,14.43
2023-05-10T11:04:16.113Z,14.46
2023-05-10T11:06:43.515Z,14.69
2023-05-10T11:09:12.649Z,14.35
2023-05-10T11:11:51.724Z,13.68
2023-05-10T11:14:22.255Z,14.17
2023-05-10T11:16:49.460Z,14.68
2023-05-10T11:19:17.843Z,14.74
2023-05-10T11:21:48.755Z,14.70
2023-05-10T11:24:19.216Z,14.74
2023-05-10T11:26:46.343Z,14.75
2023-05-10T11:29:14.154Z,14.69
2023-05-10T11:31:44.940Z,14.71
2023-05-10T11:34:12.074Z,14.17
2023-05-10T11:36:38.723Z,14.37
2023-05-10T11:39:06.015Z,14.33
2023-05-10T11:41:34.080Z,14.46
2023-05-10T11:44:00.949Z,14.68
2023-05-10T11:46:29.260Z,14.76
2023-05-10T11:48:59.227Z,14.76
2023-05-10T11:51:26.330Z,14.74
2023-05-10T11:53:55.279Z,14.35
2023-05-10T11:56:22.724Z,14.63
2023-05-10T11:58:56.631Z,14.73
2023-05-10T12:01:24.608Z,14.61
2023-05-10T12:03:52.578Z,14.68
2023-05-10T12:06:20.606Z,13.66
2023-05-10T12:08:48.766Z,12.82
2023-05-10T12:11:16.448Z,13.15
2023-05-10T12:13:47.478Z,13.10
2023-05-10T12:16:17.262Z,14.30
2023-05-10T12:18:43.962Z,14.19
2023-05-10T12:21:11.565Z,13.93
2023-05-10T12:23:38.328Z,14.02
2023-05-10T12:26:05.432Z,14.27
2023-05-10T12:28:32.989Z,13.69
2023-05-10T12:31:00.510Z,14.55
2023-05-10T12:33:35.984Z,14.68
2023-05-10T12:36:03.666Z,14.73
2023-05-10T12:38:33.536Z,14.70
2023-05-10T12:41:01.845Z,14.70
2023-05-10T12:43:28.781Z,13.62
2023-05-10T12:45:55.655Z,13.55
2023-05-10T12:48:22.418Z,14.18
2023-05-10T12:50:50.497Z,14.17
2023-05-10T12:53:17.353Z,14.52
2023-05-10T12:55:44.036Z,14.57
2023-05-10T12:58:12.400Z,14.67
2023-05-10T13:00:40.761Z,14.78
2023-05-10T13:03:07.562Z,14.70
2023-05-10T13:05:34.378Z,14.55
2023-05-10T13:08:03.627Z,14.68
2023-05-10T13:10:30.542Z,14.07
2023-05-10T13:12:57.252Z,13.10
2023-05-10T13:15:23.903Z,14.22
2023-05-10T13:17:50.581Z,14.49
2023-05-10T13:20:18.147Z,14.65
2023-05-10T13:22:45.609Z,14.49
2023-05-10T13:25:13.786Z,14.62
2023-05-10T13:27:40.959Z,14.67
2023-05-10T13:30:08.680Z,14.68
2023-05-10T13:32:35.571Z,14.69
2023-05-10T13:35:02.256Z,14.66
2023-05-10T13:37:29.356Z,14.67
2023-05-10T13:39:57.407Z,14.71
2023-05-10T13:42:25.407Z,12.82
2023-05-10T13:44:52.511Z,13.32
2023-05-10T13:47:19.540Z,14.42
2023-05-10T13:49:46.263Z,14.56
2023-05-10T13:52:13.042Z,14.63
2023-05-10T13:54:40.190Z,14.69
2023-05-10T13:57:07.553Z,14.71
2023-05-10T13:59:35.601Z,14.69
2023-05-10T14:02:03.522Z,14.68
2023-05-10T14:04:30.250Z,14.66
2023-05-10T14:06:57.867Z,12.86
2023-05-10T14:09:24.500Z,14.09
2023-05-10T14:11:51.111Z,13.92
2023-05-10T14:14:17.721Z,14.55
2023-05-10T14:16:46.060Z,12.78
2023-05-10T14:19:13.643Z,13.61
2023-05-10T14:21:40.337Z,12.66
2023-05-10T14:24:08.145Z,13.58
2023-05-10T14:26:35.526Z,14.34
2023-05-10T14:29:02.356Z,12.64
2023-05-10T14:31:31.187Z,13.40
2023-05-10T14:34:00.134Z,14.22
2023-05-10T14:36:26.891Z,14.55
2023-05-10T14:38:53.617Z,14.58
2023-05-10T14:41:20.280Z,14.06
2023-05-10T14:43:46.987Z,14.59
2023-05-10T14:46:13.737Z,14.62
2023-05-10T14:48:40.443Z,13.79
2023-05-10T14:51:08.405Z,14.52
2023-05-10T14:53:35.193Z,14.46
2023-05-10T14:56:02.699Z,14.58
2023-05-10T14:58:29.462Z,14.48
2023-05-10T15:00:56.072Z,13.47
2023-05-10T15:03:23.586Z,14.34
2023-05-10T15:05:50.724Z,14.57
2023-05-10T15:08:18.678Z,14.02
2023-05-10T15:10:45.291Z,14.41
2023-05-10T15:13:11.873Z,14.36
2023-05-10T15:15:38.766Z,14.38
2023-05-10T15:18:06.577Z,14.44
2023-05-10T15:20:33.517Z,14.43
2023-05-10T15:23:00.443Z,14.23
2023-05-10T15:25:29.736Z,14.34
2023-05-10T15:27:56.482Z,14.37
2023-05-10T15:30:23.315Z,14.38
2023-05-10T15:32:50.026Z,14.29
2023-05-10T15:35:17.938Z,14.34
2023-05-10T15:37:45.059Z,14.37
2023-05-10T15:40:12.367Z,13.83
2023-05-10T15:42:40.328Z,14.32
2023-05-10T15:45:08.093Z,13.32
2023-05-10T15:47:34.738Z,14.27
2023-05-10T15:50:01.351Z,14.32
2023-05-10T15:52:28.235Z,12.46
2023-05-10T15:54:54.921Z,13.87
2023-05-10T15:57:21.561Z,14.24
2023-05-10T15:59:49.525Z,13.84
2023-05-10T16:02:17.572Z,14.01
2023-05-10T16:04:44.664Z,13.91
2023-05-10T16:07:11.350Z,14.21
2023-05-10T16:09:38.036Z,14.17
2023-05-10T16:12:04.944Z,14.02
2023-05-10T16:14:31.748Z,14.15
2023-05-10T16:17:08.564Z,13.59
2023-05-10T16:19:35.366Z,11.84
2023-05-10T16:22:02.134Z,13.62
2023-05-10T16:24:28.720Z,13.79
2023-05-10T16:26:55.318Z,13.78
2023-05-10T16:29:21.954Z,13.96
2023-05-10T16:31:48.573Z,14.07
2023-05-10T16:34:16.683Z,14.09
2023-05-10T16:36:43.441Z,14.09
2023-05-10T16:39:10.034Z,13.94
2023-05-10T16:41:36.679Z,13.47
2023-05-10T16:44:03.776Z,13.96
2023-05-10T16:46:30.659Z,14.04
2023-05-10T16:48:57.642Z,14.04
2023-05-10T16:51:25.714Z,14.07
2023-05-10T16:53:52.801Z,14.08
2023-05-10T16:56:21.714Z,14.07
2023-05-10T16:58:49.939Z,13.98
2023-05-10T17:01:16.790Z,14.04
2023-05-10T17:03:43.557Z,14.04
2023-05-10T17:06:10.908Z,14.05
2023-05-10T17:08:38.825Z,14.04
2023-05-10T17:11:05.514Z,14.01
2023-05-10T17:13:32.141Z,14.01
2023-05-10T17:16:03.303Z,14.01
2023-05-10T17:18:30.218Z,14.00
2023-05-10T17:20:57.058Z,13.99
2023-05-10T17:23:23.719Z,13.14
2023-05-10T17:25:51.615Z,13.88
2023-05-10T17:28:18.197Z,13.90
2023-05-10T17:30:44.940Z,14.01
2023-05-10T17:33:11.574Z,13.97
2023-05-10T17:35:38.354Z,13.91
2023-05-10T17:38:04.927Z,13.41
2023-05-10T17:40:32.044Z,13.89
2023-05-10T17:43:00.119Z,13.95
2023-05-10T17:45:26.809Z,13.92
2023-05-10T17:47:53.427Z,13.95
2023-05-10T17:50:20.140Z,13.92
2023-05-10T17:52:46.725Z,13.96
2023-05-10T17:55:13.334Z,13.98
2023-05-10T17:57:39.995Z,13.92
2023-05-10T18:00:09.381Z,13.49
2023-05-10T18:02:39.504Z,13.84
2023-05-10T18:05:07.124Z,13.86
2023-05-10T18:07:34.016Z,13.87
2023-05-10T18:10:03.651Z,13.76
2023-05-10T18:12:30.109Z,13.83
2023-05-10T18:14:56.764Z,13.24
2023-05-10T18:17:24.821Z,13.78
2023-05-10T18:19:52.011Z,13.21
2023-05-10T18:22:18.699Z,13.70
2023-05-10T18:24:46.972Z,13.73
2023-05-10T18:27:13.993Z,13.72
2023-05-10T18:29:40.733Z,12.98
2023-05-10T18:32:07.414Z,13.51
2023-05-10T18:34:35.510Z,13.72
2023-05-10T18:37:07.016Z,13.74
2023-05-10T18:39:33.804Z,13.74
2023-05-10T18:42:00.548Z,13.77
2023-05-10T18:44:27.166Z,13.76
2023-05-10T18:46:54.256Z,13.72
2023-05-10T18:49:21.102Z,13.70
2023-05-10T18:51:49.052Z,13.73
2023-05-10T18:54:15.733Z,13.73
2023-05-10T18:56:45.040Z,13.68
2023-05-10T18:59:11.967Z,13.71
2023-05-10T19:01:40.445Z,13.68
2023-05-10T19:04:08.609Z,13.65
2023-05-10T19:06:35.827Z,13.64
2023-05-10T19:09:04.202Z,13.66
2023-05-10T19:11:33.944Z,13.66
2023-05-10T19:14:01.073Z,13.63
2023-05-10T19:16:29.847Z,13.62
2023-05-10T19:18:56.832Z,13.61
2023-05-10T19:21:24.597Z,13.64
2023-05-10T19:23:52.015Z,13.63
2023-05-10T19:26:20.049Z,13.58
2023-05-10T19:28:46.655Z,13.58
2023-05-10T19:31:13.553Z,13.56
2023-05-10T19:33:40.784Z,13.61
2023-05-10T19:36:10.091Z,13.64
2023-05-10T19:38:37.290Z,13.66
2023-05-10T19:41:04.474Z,13.62
2023-05-10T19:43:34.588Z,13.64
2023-05-10T19:46:02.415Z,13.56
2023-05-10T19:48:32.441Z,13.55
2023-05-10T19:51:01.960Z,13.53
2023-05-10T19:53:29.298Z,13.54
2023-05-10T19:55:56.388Z,13.50
2023-05-10T19:58:23.438Z,13.52
2023-05-10T20:00:51.409Z,10.64
2023-05-10T20:03:18.007Z,11.93
2023-05-10T20:05:44.634Z,13.05
2023-05-10T20:08:11.234Z,13.32
2023-05-10T20:10:37.821Z,13.41
2023-05-10T20:13:04.434Z,13.43
2023-05-10T20:15:31.104Z,13.44
2023-05-10T20:17:59.163Z,13.46
2023-05-10T20:20:25.824Z,13.39
2023-05-10T20:22:52.536Z,13.39
2023-05-10T20:25:19.357Z,13.39
2023-05-10T20:27:46.004Z,13.39
2023-05-10T20:30:12.828Z,13.48
2023-05-10T20:32:39.502Z,13.41
2023-05-10T20:35:08.536Z,13.40
2023-05-10T20:37:35.367Z,13.46
2023-05-10T20:40:01.972Z,13.42
2023-05-10T20:42:28.520Z,13.41
2023-05-10T20:44:55.177Z,13.35
2023-05-10T20:47:25.107Z,13.36
2023-05-10T20:49:51.688Z,13.35
2023-05-10T20:52:19.647Z,13.42
2023-05-10T20:54:46.328Z,13.40
2023-05-10T20:57:12.971Z,13.30
2023-05-10T20:59:39.530Z,13.37
2023-05-10T21:02:06.683Z,13.45
2023-05-10T21:04:33.393Z,13.40
2023-05-10T21:07:00.143Z,13.36
2023-05-10T21:09:28.099Z,13.39
2023-05-10T21:11:54.748Z,13.33
2023-05-10T21:14:21.483Z,13.25
2023-05-10T21:16:48.194Z,13.23
2023-05-10T21:19:14.863Z,13.33
2023-05-10T21:21:41.490Z,13.26
2023-05-10T21:24:08.079Z,13.34
2023-05-10T21:26:36.396Z,13.21
2023-05-10T21:29:04.731Z,13.22
2023-05-10T21:31:31.872Z,13.26
2023-05-10T21:33:58.503Z,13.33
2023-05-10T21:36:25.498Z,13.17
2023-05-10T21:38:52.124Z,13.24
2023-05-10T21:41:18.799Z,13.27
2023-05-10T21:43:46.781Z,13.26
2023-05-10T21:46:14.302Z,13.14
2023-05-10T21:48:41.146Z,13.20
2023-05-10T21:51:07.796Z,13.20
2023-05-10T21:53:37.254Z,13.21
2023-05-10T21:56:03.943Z,13.22
2023-05-10T21:58:30.608Z,13.13
2023-05-10T22:00:58.606Z,13.12
2023-05-10T22:03:26.200Z,13.20
2023-05-10T22:05:52.971Z,13.13
2023-05-10T22:08:19.535Z,13.12
2023-05-10T22:10:46.074Z,13.12
2023-05-10T22:13:12.643Z,13.15
2023-05-10T22:15:39.475Z,13.11
2023-05-10T22:18:07.487Z,13.14
2023-05-10T22:20:34.177Z,13.11
2023-05-10T22:23:01.000Z,13.08
2023-05-10T22:25:28.121Z,13.11
2023-05-10T22:27:54.709Z,12.56
2023-05-10T22:30:21.563Z,12.94
2023-05-10T22:32:48.702Z,11.35
2023-05-10T22:35:16.692Z,10.88
2023-05-10T22:37:43.390Z,12.24
2023-05-10T22:40:11.471Z,12.68
2023-05-10T22:42:38.364Z,12.87
2023-05-10T22:45:05.927Z,12.27
2023-05-10T22:47:33.604Z,12.18
2023-05-10T22:50:03.216Z,12.78
2023-05-10T22:52:30.979Z,12.87
2023-05-10T22:54:57.651Z,12.86
2023-05-10T22:57:24.532Z,12.84
2023-05-10T22:59:51.520Z,12.78
2023-05-10T23:02:18.225Z,12.92
2023-05-10T23:04:45.110Z,12.80
2023-05-10T23:07:11.798Z,12.90
2023-05-10T23:09:39.759Z,12.15
2023-05-10T23:12:06.528Z,12.67
2023-05-10T23:14:33.139Z,12.87
2023-05-10T23:16:59.817Z,12.87
2023-05-10T23:19:26.418Z,12.83
2023-05-10T23:21:53.065Z,12.84
2023-05-10T23:24:19.661Z,12.83
2023-05-10T23:26:47.567Z,12.79
2023-05-10T23:29:14.249Z,12.85
2023-05-10T23:31:45.751Z,12.86
2023-05-10T23:34:12.492Z,12.77
2023-05-10T23:36:39.350Z,12.79
2023-05-10T23:39:06.843Z,12.89
2023-05-10T23:41:33.514Z,12.83
2023-05-10T23:44:04.467Z,12.80
2023-05-10T23:46:31.168Z,12.78
2023-05-10T23:48:57.755Z,12.77
2023-05-10T23:51:24.399Z,12.80
2023-05-10T23:53:50.966Z,12.75
2023-05-10T23:56:17.576Z,12.72
2023-05-10T23:58:45.294Z,12.71
